sensor_id;sensor_type;location;lat;lon;timestamp;temperature;humidity
22842;DHT22;11587;47.064;15.444;2022-07-29T00:00:59;21.80;99.90
22842;DHT22;11587;47.064;15.444;2022-07-29T00:03:25;21.70;99.90
22842;DHT22;11587;47.064;15.444;2022-07-29T00:08:17;21.70;99.90
22842;DHT22;11587;47.064;15.444;2022-07-29T00:10:43;21.70;99.90
22842;DHT22;11587;47.064;15.444;2022-07-29T00:13:09;21.80;99.90
22842;DHT22;11587;47.064;15.444;2022-07-29T00:15:35;21.80;99.90
22842;DHT22;11587;47.064;15.444;2022-07-29T00:18:01;21.80;99.90
22842;DHT22;11587;47.064;15.444;2022-07-29T00:22:52;21.80;99.90
22842;DHT22;11587;47.064;15.444;2022-07-29T00:25:19;21.80;99.90
22842;DHT22;11587;47.064;15.444;2022-07-29T00:27:45;21.80;99.90
22842;DHT22;11587;47.064;15.444;2022-07-29T00:35:05;21.80;99.90
22842;DHT22;11587;47.064;15.444;2022-07-29T00:37:50;21.80;99.90
22842;DHT22;11587;47.064;15.444;2022-07-29T00:40:19;21.90;99.90
22842;DHT22;11587;47.064;15.444;2022-07-29T00:42:47;21.80;99.90
22842;DHT22;11587;47.064;15.444;2022-07-29T00:45:14;21.80;99.90
22842;DHT22;11587;47.064;15.444;2022-07-29T00:50:07;21.90;99.90
22842;DHT22;11587;47.064;15.444;2022-07-29T00:52:40;21.90;99.90
22842;DHT22;11587;47.064;15.444;2022-07-29T00:55:10;21.90;99.90
22842;DHT22;11587;47.064;15.444;2022-07-29T00:57:36;21.90;99.90
22842;DHT22;11587;47.064;15.444;2022-07-29T01:04:53;21.90;99.90
22842;DHT22;11587;47.064;15.444;2022-07-29T01:07:20;22.00;99.90
22842;DHT22;11587;47.064;15.444;2022-07-29T01:09:47;21.90;99.90
22842;DHT22;11587;47.064;15.444;2022-07-29T01:12:26;22.00;99.90
22842;DHT22;11587;47.064;15.444;2022-07-29T01:14:54;22.00;99.90
22842;DHT22;11587;47.064;15.444;2022-07-29T01:23:30;21.90;99.90
22842;DHT22;11587;47.064;15.444;2022-07-29T01:32:15;21.80;99.90
22842;DHT22;11587;47.064;15.444;2022-07-29T01:34:21;21.80;99.90
22842;DHT22;11587;47.064;15.444;2022-07-29T01:36:54;21.80;99.90
22842;DHT22;11587;47.064;15.444;2022-07-29T01:39:27;21.80;99.90
22842;DHT22;11587;47.064;15.444;2022-07-29T01:46:52;21.70;99.90
22842;DHT22;11587;47.064;15.444;2022-07-29T01:49:28;21.70;99.90
22842;DHT22;11587;47.064;15.444;2022-07-29T01:52:03;21.60;99.90
22842;DHT22;11587;47.064;15.444;2022-07-29T01:54:37;21.60;99.90
22842;DHT22;11587;47.064;15.444;2022-07-29T01:57:05;21.50;99.90
22842;DHT22;11587;47.064;15.444;2022-07-29T02:04:23;21.40;99.90
22842;DHT22;11587;47.064;15.444;2022-07-29T02:06:51;21.40;99.90
22842;DHT22;11587;47.064;15.444;2022-07-29T02:09:19;21.30;99.90
22842;DHT22;11587;47.064;15.444;2022-07-29T02:11:49;21.30;99.90
22842;DHT22;11587;47.064;15.444;2022-07-29T02:14:19;21.30;99.90
22842;DHT22;11587;47.064;15.444;2022-07-29T02:16:47;21.20;99.90
22842;DHT22;11587;47.064;15.444;2022-07-29T02:19:17;21.20;99.90
22842;DHT22;11587;47.064;15.444;2022-07-29T02:21:45;21.10;99.90
22842;DHT22;11587;47.064;15.444;2022-07-29T02:24:12;21.10;99.90
22842;DHT22;11587;47.064;15.444;2022-07-29T02:26:41;21.10;99.90
22842;DHT22;11587;47.064;15.444;2022-07-29T02:31:35;21.10;99.90
22842;DHT22;11587;47.064;15.444;2022-07-29T02:34:03;21.10;99.90
22842;DHT22;11587;47.064;15.444;2022-07-29T02:36:32;21.10;99.90
22842;DHT22;11587;47.064;15.444;2022-07-29T02:39:00;21.10;99.90
22842;DHT22;11587;47.064;15.444;2022-07-29T02:46:30;21.00;99.90
22842;DHT22;11587;47.064;15.444;2022-07-29T02:49:02;21.00;99.90
22842;DHT22;11587;47.064;15.444;2022-07-29T02:51:40;21.00;99.90
22842;DHT22;11587;47.064;15.444;2022-07-29T02:54:09;20.90;99.90
22842;DHT22;11587;47.064;15.444;2022-07-29T02:56:37;21.00;99.90
22842;DHT22;11587;47.064;15.444;2022-07-29T03:01:31;20.90;99.90
22842;DHT22;11587;47.064;15.444;2022-07-29T03:04:01;20.80;99.90
22842;DHT22;11587;47.064;15.444;2022-07-29T03:06:30;20.80;99.90
22842;DHT22;11587;47.064;15.444;2022-07-29T03:08:59;20.80;99.90
22842;DHT22;11587;47.064;15.444;2022-07-29T03:13:51;20.60;99.90
22842;DHT22;11587;47.064;15.444;2022-07-29T03:16:19;20.80;99.90
22842;DHT22;11587;47.064;15.444;2022-07-29T03:18:46;20.70;99.90
22842;DHT22;11587;47.064;15.444;2022-07-29T03:21:12;20.70;99.90
22842;DHT22;11587;47.064;15.444;2022-07-29T03:23:43;20.60;99.90
22842;DHT22;11587;47.064;15.444;2022-07-29T03:26:11;20.60;99.90
22842;DHT22;11587;47.064;15.444;2022-07-29T03:28:38;20.60;99.90
22842;DHT22;11587;47.064;15.444;2022-07-29T03:31:04;20.50;99.90
22842;DHT22;11587;47.064;15.444;2022-07-29T03:33:29;20.50;99.90
22842;DHT22;11587;47.064;15.444;2022-07-29T03:35:56;20.50;99.90
22842;DHT22;11587;47.064;15.444;2022-07-29T03:38:25;20.40;99.90
22842;DHT22;11587;47.064;15.444;2022-07-29T03:43:18;20.30;99.90
22842;DHT22;11587;47.064;15.444;2022-07-29T03:45:47;20.30;99.90
22842;DHT22;11587;47.064;15.444;2022-07-29T03:48:17;20.20;99.90
22842;DHT22;11587;47.064;15.444;2022-07-29T03:50:45;20.30;99.90
22842;DHT22;11587;47.064;15.444;2022-07-29T03:58:02;20.10;99.90
22842;DHT22;11587;47.064;15.444;2022-07-29T04:00:29;20.10;99.90
22842;DHT22;11587;47.064;15.444;2022-07-29T04:02:56;20.10;99.90
22842;DHT22;11587;47.064;15.444;2022-07-29T04:05:22;20.20;99.90
22842;DHT22;11587;47.064;15.444;2022-07-29T04:07:48;20.20;99.90
22842;DHT22;11587;47.064;15.444;2022-07-29T04:12:40;20.20;99.90
22842;DHT22;11587;47.064;15.444;2022-07-29T04:15:06;20.20;99.90
22842;DHT22;11587;47.064;15.444;2022-07-29T04:17:32;20.30;99.90
22842;DHT22;11587;47.064;15.444;2022-07-29T04:24:49;20.30;99.90
22842;DHT22;11587;47.064;15.444;2022-07-29T04:27:15;20.30;99.90
22842;DHT22;11587;47.064;15.444;2022-07-29T04:29:41;20.40;99.90
22842;DHT22;11587;47.064;15.444;2022-07-29T04:32:07;20.40;99.90
22842;DHT22;11587;47.064;15.444;2022-07-29T04:36:58;20.40;99.90
22842;DHT22;11587;47.064;15.444;2022-07-29T04:39:24;20.40;99.90
22842;DHT22;11587;47.064;15.444;2022-07-29T04:41:51;20.40;99.90
22842;DHT22;11587;47.064;15.444;2022-07-29T04:44:17;20.40;99.90
22842;DHT22;11587;47.064;15.444;2022-07-29T04:49:08;20.50;99.90
22842;DHT22;11587;47.064;15.444;2022-07-29T04:51:34;20.50;99.90
22842;DHT22;11587;47.064;15.444;2022-07-29T04:54:01;20.40;99.90
22842;DHT22;11587;47.064;15.444;2022-07-29T04:56:27;20.50;99.90
22842;DHT22;11587;47.064;15.444;2022-07-29T04:58:53;20.50;99.90
22842;DHT22;11587;47.064;15.444;2022-07-29T05:01:19;20.50;99.90
22842;DHT22;11587;47.064;15.444;2022-07-29T05:03:45;20.60;99.90
22842;DHT22;11587;47.064;15.444;2022-07-29T05:06:11;20.60;99.90
22842;DHT22;11587;47.064;15.444;2022-07-29T05:08:37;20.70;99.90
22842;DHT22;11587;47.064;15.444;2022-07-29T05:11:03;20.80;99.90
22842;DHT22;11587;47.064;15.444;2022-07-29T05:13:30;20.80;99.90
22842;DHT22;11587;47.064;15.444;2022-07-29T05:18:21;20.90;99.90
22842;DHT22;11587;47.064;15.444;2022-07-29T05:20:47;20.90;99.90
22842;DHT22;11587;47.064;15.444;2022-07-29T05:23:13;20.90;99.90
22842;DHT22;11587;47.064;15.444;2022-07-29T05:25:40;20.90;99.90
22842;DHT22;11587;47.064;15.444;2022-07-29T05:28:05;20.90;99.90
22842;DHT22;11587;47.064;15.444;2022-07-29T05:30:31;20.90;99.90
22842;DHT22;11587;47.064;15.444;2022-07-29T05:32:58;21.00;99.90
22842;DHT22;11587;47.064;15.444;2022-07-29T05:35:23;21.00;99.90
22842;DHT22;11587;47.064;15.444;2022-07-29T05:37:49;21.10;99.90
22842;DHT22;11587;47.064;15.444;2022-07-29T05:40:16;21.10;99.90
22842;DHT22;11587;47.064;15.444;2022-07-29T05:45:07;21.20;99.90
22842;DHT22;11587;47.064;15.444;2022-07-29T05:47:34;21.30;99.90
22842;DHT22;11587;47.064;15.444;2022-07-29T05:50:00;21.30;99.90
22842;DHT22;11587;47.064;15.444;2022-07-29T05:54:51;21.50;99.90
22842;DHT22;11587;47.064;15.444;2022-07-29T05:57:18;21.60;99.90
22842;DHT22;11587;47.064;15.444;2022-07-29T05:59:44;21.60;99.90
22842;DHT22;11587;47.064;15.444;2022-07-29T06:02:10;21.60;99.90
22842;DHT22;11587;47.064;15.444;2022-07-29T06:04:36;21.70;99.90
22842;DHT22;11587;47.064;15.444;2022-07-29T06:09:28;21.80;99.90
22842;DHT22;11587;47.064;15.444;2022-07-29T06:11:54;21.70;99.90
22842;DHT22;11587;47.064;15.444;2022-07-29T06:14:19;21.80;99.90
22842;DHT22;11587;47.064;15.444;2022-07-29T06:16:46;21.70;99.90
22842;DHT22;11587;47.064;15.444;2022-07-29T06:19:12;21.70;99.90
22842;DHT22;11587;47.064;15.444;2022-07-29T06:24:03;21.80;99.90
22842;DHT22;11587;47.064;15.444;2022-07-29T06:26:29;21.90;99.90
22842;DHT22;11587;47.064;15.444;2022-07-29T06:28:55;21.90;99.90
22842;DHT22;11587;47.064;15.444;2022-07-29T06:31:21;21.90;99.90
22842;DHT22;11587;47.064;15.444;2022-07-29T06:36:12;21.90;99.90
22842;DHT22;11587;47.064;15.444;2022-07-29T06:38:38;21.90;99.90
22842;DHT22;11587;47.064;15.444;2022-07-29T06:41:04;21.90;99.90
22842;DHT22;11587;47.064;15.444;2022-07-29T06:43:37;22.00;99.90
22842;DHT22;11587;47.064;15.444;2022-07-29T06:50:54;22.20;99.90
22842;DHT22;11587;47.064;15.444;2022-07-29T06:53:20;22.20;99.90
22842;DHT22;11587;47.064;15.444;2022-07-29T06:55:46;22.30;99.90
22842;DHT22;11587;47.064;15.444;2022-07-29T07:00:38;22.40;99.90
22842;DHT22;11587;47.064;15.444;2022-07-29T07:03:03;22.50;99.90
22842;DHT22;11587;47.064;15.444;2022-07-29T07:05:29;22.50;99.90
22842;DHT22;11587;47.064;15.444;2022-07-29T07:07:55;22.60;99.90
22842;DHT22;11587;47.064;15.444;2022-07-29T07:10:21;22.70;99.90
22842;DHT22;11587;47.064;15.444;2022-07-29T07:15:13;22.80;99.90
22842;DHT22;11587;47.064;15.444;2022-07-29T07:17:39;23.00;99.90
22842;DHT22;11587;47.064;15.444;2022-07-29T07:20:05;22.90;99.90
22842;DHT22;11587;47.064;15.444;2022-07-29T07:22:32;23.00;99.90
22842;DHT22;11587;47.064;15.444;2022-07-29T07:24:57;23.10;99.90
22842;DHT22;11587;47.064;15.444;2022-07-29T07:27:23;23.20;99.90
22842;DHT22;11587;47.064;15.444;2022-07-29T07:29:49;23.40;99.90
22842;DHT22;11587;47.064;15.444;2022-07-29T07:32:15;23.50;99.90
22842;DHT22;11587;47.064;15.444;2022-07-29T07:34:44;23.40;99.90
22842;DHT22;11587;47.064;15.444;2022-07-29T07:37:11;23.40;99.90
22842;DHT22;11587;47.064;15.444;2022-07-29T07:42:03;23.40;99.90
22842;DHT22;11587;47.064;15.444;2022-07-29T07:44:29;23.50;99.90
22842;DHT22;11587;47.064;15.444;2022-07-29T07:46:54;23.60;99.90
22842;DHT22;11587;47.064;15.444;2022-07-29T07:49:20;23.60;99.90
22842;DHT22;11587;47.064;15.444;2022-07-29T07:51:46;23.60;99.90
22842;DHT22;11587;47.064;15.444;2022-07-29T07:56:38;23.70;99.90
22842;DHT22;11587;47.064;15.444;2022-07-29T07:59:04;23.70;99.90
22842;DHT22;11587;47.064;15.444;2022-07-29T08:01:30;23.80;99.90
22842;DHT22;11587;47.064;15.444;2022-07-29T08:03:55;24.00;99.90
22842;DHT22;11587;47.064;15.444;2022-07-29T08:08:47;24.10;99.90
22842;DHT22;11587;47.064;15.444;2022-07-29T08:11:13;24.40;99.90
22842;DHT22;11587;47.064;15.444;2022-07-29T08:13:39;24.40;99.90
22842;DHT22;11587;47.064;15.444;2022-07-29T08:18:31;24.70;99.90
22842;DHT22;11587;47.064;15.444;2022-07-29T08:23:22;25.00;99.90
22842;DHT22;11587;47.064;15.444;2022-07-29T08:25:49;25.10;99.90
22842;DHT22;11587;47.064;15.444;2022-07-29T08:28:16;25.30;99.90
22842;DHT22;11587;47.064;15.444;2022-07-29T08:33:07;25.40;99.90
22842;DHT22;11587;47.064;15.444;2022-07-29T08:35:33;25.60;99.90
22842;DHT22;11587;47.064;15.444;2022-07-29T08:37:59;25.70;99.90
22842;DHT22;11587;47.064;15.444;2022-07-29T08:40:25;26.00;99.90
22842;DHT22;11587;47.064;15.444;2022-07-29T08:42:51;26.10;99.90
22842;DHT22;11587;47.064;15.444;2022-07-29T08:47:44;26.10;99.90
22842;DHT22;11587;47.064;15.444;2022-07-29T08:50:11;26.20;99.90
22842;DHT22;11587;47.064;15.444;2022-07-29T08:52:39;26.10;99.90
22842;DHT22;11587;47.064;15.444;2022-07-29T08:55:09;26.50;99.90
22842;DHT22;11587;47.064;15.444;2022-07-29T08:57:54;26.60;99.90
22842;DHT22;11587;47.064;15.444;2022-07-29T09:02:47;26.90;99.90
22842;DHT22;11587;47.064;15.444;2022-07-29T09:05:17;26.90;99.90
22842;DHT22;11587;47.064;15.444;2022-07-29T09:07:44;27.00;99.90
22842;DHT22;11587;47.064;15.444;2022-07-29T09:10:13;26.90;99.90
22842;DHT22;11587;47.064;15.444;2022-07-29T09:12:39;27.10;99.90
22842;DHT22;11587;47.064;15.444;2022-07-29T09:15:06;27.10;99.90
22842;DHT22;11587;47.064;15.444;2022-07-29T09:17:42;27.00;99.90
22842;DHT22;11587;47.064;15.444;2022-07-29T09:20:19;26.80;99.90
22842;DHT22;11587;47.064;15.444;2022-07-29T09:22:50;26.90;99.90
22842;DHT22;11587;47.064;15.444;2022-07-29T09:25:38;26.80;99.90
22842;DHT22;11587;47.064;15.444;2022-07-29T09:28:07;26.70;99.90
22842;DHT22;11587;47.064;15.444;2022-07-29T09:30:34;26.80;99.90
22842;DHT22;11587;47.064;15.444;2022-07-29T09:33:01;26.60;99.90
22842;DHT22;11587;47.064;15.444;2022-07-29T09:37:54;26.60;99.90
22842;DHT22;11587;47.064;15.444;2022-07-29T09:40:21;26.60;99.90
22842;DHT22;11587;47.064;15.444;2022-07-29T09:42:47;26.70;99.90
22842;DHT22;11587;47.064;15.444;2022-07-29T09:45:30;27.10;99.90
22842;DHT22;11587;47.064;15.444;2022-07-29T09:47:56;27.10;99.90
22842;DHT22;11587;47.064;15.444;2022-07-29T09:52:51;26.90;99.90
22842;DHT22;11587;47.064;15.444;2022-07-29T09:55:18;27.20;99.90
22842;DHT22;11587;47.064;15.444;2022-07-29T09:57:45;27.20;99.90
22842;DHT22;11587;47.064;15.444;2022-07-29T10:05:04;27.00;99.90
22842;DHT22;11587;47.064;15.444;2022-07-29T10:07:54;27.20;99.90
22842;DHT22;11587;47.064;15.444;2022-07-29T10:10:31;27.40;99.90
22842;DHT22;11587;47.064;15.444;2022-07-29T10:13:02;27.20;99.90
22842;DHT22;11587;47.064;15.444;2022-07-29T10:15:30;27.30;99.90
22842;DHT22;11587;47.064;15.444;2022-07-29T10:17:58;27.20;99.90
22842;DHT22;11587;47.064;15.444;2022-07-29T10:22:50;27.00;99.90
22842;DHT22;11587;47.064;15.444;2022-07-29T10:25:17;26.90;99.90
22842;DHT22;11587;47.064;15.444;2022-07-29T10:27:45;26.80;99.90
22842;DHT22;11587;47.064;15.444;2022-07-29T10:30:11;26.70;99.90
22842;DHT22;11587;47.064;15.444;2022-07-29T10:32:58;26.80;99.90
22842;DHT22;11587;47.064;15.444;2022-07-29T10:43:31;26.60;99.90
22842;DHT22;11587;47.064;15.444;2022-07-29T10:46:02;26.50;99.90
22842;DHT22;11587;47.064;15.444;2022-07-29T10:48:29;26.60;99.90
22842;DHT22;11587;47.064;15.444;2022-07-29T10:53:23;26.70;99.90
22842;DHT22;11587;47.064;15.444;2022-07-29T10:55:51;26.80;99.90
22842;DHT22;11587;47.064;15.444;2022-07-29T10:58:20;26.70;99.90
22842;DHT22;11587;47.064;15.444;2022-07-29T11:00:47;26.70;99.90
22842;DHT22;11587;47.064;15.444;2022-07-29T11:05:55;27.20;99.90
22842;DHT22;11587;47.064;15.444;2022-07-29T11:10:48;28.00;99.90
22842;DHT22;11587;47.064;15.444;2022-07-29T11:16:09;28.60;99.90
22842;DHT22;11587;47.064;15.444;2022-07-29T11:18:35;28.90;99.90
22842;DHT22;11587;47.064;15.444;2022-07-29T11:21:01;29.30;99.90
22842;DHT22;11587;47.064;15.444;2022-07-29T11:31:37;29.50;99.90
22842;DHT22;11587;47.064;15.444;2022-07-29T11:34:28;30.30;99.90
22842;DHT22;11587;47.064;15.444;2022-07-29T11:39:48;30.20;99.90
22842;DHT22;11587;47.064;15.444;2022-07-29T11:45:04;31.30;99.90
22842;DHT22;11587;47.064;15.444;2022-07-29T11:52:22;30.20;99.90
22842;DHT22;11587;47.064;15.444;2022-07-29T11:54:49;30.40;99.90
22842;DHT22;11587;47.064;15.444;2022-07-29T11:57:17;30.00;99.90
22842;DHT22;11587;47.064;15.444;2022-07-29T11:59:45;30.00;99.90
22842;DHT22;11587;47.064;15.444;2022-07-29T12:07:02;29.20;99.90
22842;DHT22;11587;47.064;15.444;2022-07-29T12:09:28;29.10;99.90
22842;DHT22;11587;47.064;15.444;2022-07-29T12:11:57;29.00;99.90
22842;DHT22;11587;47.064;15.444;2022-07-29T12:14:30;29.00;99.90
22842;DHT22;11587;47.064;15.444;2022-07-29T12:16:57;28.80;99.90
22842;DHT22;11587;47.064;15.444;2022-07-29T12:19:23;28.80;99.90
22842;DHT22;11587;47.064;15.444;2022-07-29T12:21:52;28.90;99.90
22842;DHT22;11587;47.064;15.444;2022-07-29T12:24:18;28.70;99.90
22842;DHT22;11587;47.064;15.444;2022-07-29T12:26:55;28.30;99.90
22842;DHT22;11587;47.064;15.444;2022-07-29T12:34:14;28.00;99.90
22842;DHT22;11587;47.064;15.444;2022-07-29T12:36:42;28.00;99.90
22842;DHT22;11587;47.064;15.444;2022-07-29T12:39:08;27.90;99.90
22842;DHT22;11587;47.064;15.444;2022-07-29T12:41:35;28.00;99.90
22842;DHT22;11587;47.064;15.444;2022-07-29T12:46:27;28.00;99.90
22842;DHT22;11587;47.064;15.444;2022-07-29T12:48:54;28.20;99.90
22842;DHT22;11587;47.064;15.444;2022-07-29T12:56:29;28.40;99.90
22842;DHT22;11587;47.064;15.444;2022-07-29T13:03:57;28.30;99.90
22842;DHT22;11587;47.064;15.444;2022-07-29T13:06:42;28.50;99.90
22842;DHT22;11587;47.064;15.444;2022-07-29T13:09:13;28.90;99.90
22842;DHT22;11587;47.064;15.444;2022-07-29T13:11:44;28.90;99.90
22842;DHT22;11587;47.064;15.444;2022-07-29T13:14:12;28.50;99.90
22842;DHT22;11587;47.064;15.444;2022-07-29T13:17:02;28.10;99.90
22842;DHT22;11587;47.064;15.444;2022-07-29T13:19:34;27.80;99.90
22842;DHT22;11587;47.064;15.444;2022-07-29T13:22:00;28.20;99.90
22842;DHT22;11587;47.064;15.444;2022-07-29T13:24:26;28.20;99.90
22842;DHT22;11587;47.064;15.444;2022-07-29T13:26:52;28.40;99.90
22842;DHT22;11587;47.064;15.444;2022-07-29T13:29:18;28.40;99.90
22842;DHT22;11587;47.064;15.444;2022-07-29T13:36:35;28.80;99.90
22842;DHT22;11587;47.064;15.444;2022-07-29T13:39:01;28.80;99.90
22842;DHT22;11587;47.064;15.444;2022-07-29T13:41:28;28.70;99.90
22842;DHT22;11587;47.064;15.444;2022-07-29T13:48:45;29.40;99.90
22842;DHT22;11587;47.064;15.444;2022-07-29T13:51:11;29.40;99.90
22842;DHT22;11587;47.064;15.444;2022-07-29T13:53:37;29.40;99.90
22842;DHT22;11587;47.064;15.444;2022-07-29T13:56:03;29.30;99.90
22842;DHT22;11587;47.064;15.444;2022-07-29T13:58:32;29.30;99.90
22842;DHT22;11587;47.064;15.444;2022-07-29T14:03:24;29.00;99.90
22842;DHT22;11587;47.064;15.444;2022-07-29T14:05:50;28.90;99.90
22842;DHT22;11587;47.064;15.444;2022-07-29T14:08:16;28.90;99.90
22842;DHT22;11587;47.064;15.444;2022-07-29T14:15:33;29.50;99.90
22842;DHT22;11587;47.064;15.444;2022-07-29T14:17:59;30.20;99.90
22842;DHT22;11587;47.064;15.444;2022-07-29T14:20:25;31.40;99.90
22842;DHT22;11587;47.064;15.444;2022-07-29T14:22:51;32.70;99.90
22842;DHT22;11587;47.064;15.444;2022-07-29T14:27:43;33.50;99.90
22842;DHT22;11587;47.064;15.444;2022-07-29T14:30:09;33.10;99.90
22842;DHT22;11587;47.064;15.444;2022-07-29T14:32:36;33.80;99.90
22842;DHT22;11587;47.064;15.444;2022-07-29T14:35:02;33.50;99.90
22842;DHT22;11587;47.064;15.444;2022-07-29T14:37:28;33.30;99.90
22842;DHT22;11587;47.064;15.444;2022-07-29T14:42:19;32.90;99.90
22842;DHT22;11587;47.064;15.444;2022-07-29T14:44:45;32.30;99.90
22842;DHT22;11587;47.064;15.444;2022-07-29T14:47:11;32.70;99.90
22842;DHT22;11587;47.064;15.444;2022-07-29T14:49:36;33.00;99.90
22842;DHT22;11587;47.064;15.444;2022-07-29T14:54:28;33.70;99.90
22842;DHT22;11587;47.064;15.444;2022-07-29T14:56:54;33.80;99.90
22842;DHT22;11587;47.064;15.444;2022-07-29T14:59:22;33.30;99.90
22842;DHT22;11587;47.064;15.444;2022-07-29T15:01:48;32.90;99.90
22842;DHT22;11587;47.064;15.444;2022-07-29T15:06:40;31.80;99.90
22842;DHT22;11587;47.064;15.444;2022-07-29T15:09:06;31.60;99.90
22842;DHT22;11587;47.064;15.444;2022-07-29T15:11:32;31.30;99.90
22842;DHT22;11587;47.064;15.444;2022-07-29T15:13:58;31.40;99.90
22842;DHT22;11587;47.064;15.444;2022-07-29T15:18:50;32.10;99.90
22842;DHT22;11587;47.064;15.444;2022-07-29T15:21:16;32.40;99.90
22842;DHT22;11587;47.064;15.444;2022-07-29T15:23:42;32.10;99.90
22842;DHT22;11587;47.064;15.444;2022-07-29T15:26:08;31.70;99.90
22842;DHT22;11587;47.064;15.444;2022-07-29T15:28:34;31.50;99.90
22842;DHT22;11587;47.064;15.444;2022-07-29T15:31:00;31.00;99.90
22842;DHT22;11587;47.064;15.444;2022-07-29T15:33:26;30.80;99.90
22842;DHT22;11587;47.064;15.444;2022-07-29T15:35:52;30.60;99.90
22842;DHT22;11587;47.064;15.444;2022-07-29T15:38:18;30.60;99.90
22842;DHT22;11587;47.064;15.444;2022-07-29T15:40:44;30.60;99.90
22842;DHT22;11587;47.064;15.444;2022-07-29T15:48:03;31.20;99.90
22842;DHT22;11587;47.064;15.444;2022-07-29T15:50:29;31.10;99.90
22842;DHT22;11587;47.064;15.444;2022-07-29T15:52:55;31.10;99.90
22842;DHT22;11587;47.064;15.444;2022-07-29T15:55:21;30.60;99.90
22842;DHT22;11587;47.064;15.444;2022-07-29T16:00:14;29.80;99.90
22842;DHT22;11587;47.064;15.444;2022-07-29T16:02:42;29.70;99.90
22842;DHT22;11587;47.064;15.444;2022-07-29T16:05:09;29.60;99.90
22842;DHT22;11587;47.064;15.444;2022-07-29T16:07:35;29.50;99.90
22842;DHT22;11587;47.064;15.444;2022-07-29T16:10:03;29.50;99.90
22842;DHT22;11587;47.064;15.444;2022-07-29T16:14:54;29.20;99.90
22842;DHT22;11587;47.064;15.444;2022-07-29T16:17:20;29.10;99.90
22842;DHT22;11587;47.064;15.444;2022-07-29T16:19:46;29.10;99.90
22842;DHT22;11587;47.064;15.444;2022-07-29T16:22:12;29.10;99.90
22842;DHT22;11587;47.064;15.444;2022-07-29T16:27:04;28.80;99.90
22842;DHT22;11587;47.064;15.444;2022-07-29T16:29:30;28.90;99.90
22842;DHT22;11587;47.064;15.444;2022-07-29T16:31:56;28.90;99.90
22842;DHT22;11587;47.064;15.444;2022-07-29T16:34:22;28.90;99.90
22842;DHT22;11587;47.064;15.444;2022-07-29T16:41:39;28.70;99.90
22842;DHT22;11587;47.064;15.444;2022-07-29T16:44:05;28.60;99.90
22842;DHT22;11587;47.064;15.444;2022-07-29T16:46:31;28.50;99.90
22842;DHT22;11587;47.064;15.444;2022-07-29T16:51:27;28.30;99.90
22842;DHT22;11587;47.064;15.444;2022-07-29T16:53:54;28.30;99.90
22842;DHT22;11587;47.064;15.444;2022-07-29T16:56:20;28.20;99.90
22842;DHT22;11587;47.064;15.444;2022-07-29T16:58:46;28.30;99.90
22842;DHT22;11587;47.064;15.444;2022-07-29T17:01:12;28.40;99.90
22842;DHT22;11587;47.064;15.444;2022-07-29T17:08:29;28.30;99.90
22842;DHT22;11587;47.064;15.444;2022-07-29T17:10:55;28.10;99.90
22842;DHT22;11587;47.064;15.444;2022-07-29T17:13:20;28.00;99.90
22842;DHT22;11587;47.064;15.444;2022-07-29T17:18:12;27.80;99.90
22842;DHT22;11587;47.064;15.444;2022-07-29T17:20:38;27.70;99.90
22842;DHT22;11587;47.064;15.444;2022-07-29T17:23:04;27.60;99.90
22842;DHT22;11587;47.064;15.444;2022-07-29T17:25:29;27.50;99.90
22842;DHT22;11587;47.064;15.444;2022-07-29T17:27:55;27.50;99.90
22842;DHT22;11587;47.064;15.444;2022-07-29T17:30:22;27.30;99.90
22842;DHT22;11587;47.064;15.444;2022-07-29T17:32:48;27.20;99.90
22842;DHT22;11587;47.064;15.444;2022-07-29T17:35:14;27.20;99.90
22842;DHT22;11587;47.064;15.444;2022-07-29T17:37:58;27.30;99.90
22842;DHT22;11587;47.064;15.444;2022-07-29T17:40:24;27.10;99.90
22842;DHT22;11587;47.064;15.444;2022-07-29T17:42:50;27.10;99.90
22842;DHT22;11587;47.064;15.444;2022-07-29T17:47:41;26.90;99.90
22842;DHT22;11587;47.064;15.444;2022-07-29T17:50:09;26.80;99.90
22842;DHT22;11587;47.064;15.444;2022-07-29T17:52:35;26.80;99.90
22842;DHT22;11587;47.064;15.444;2022-07-29T17:55:01;26.80;99.90
22842;DHT22;11587;47.064;15.444;2022-07-29T18:02:18;26.50;99.90
22842;DHT22;11587;47.064;15.444;2022-07-29T18:04:43;26.40;99.90
22842;DHT22;11587;47.064;15.444;2022-07-29T18:07:09;26.40;99.90
22842;DHT22;11587;47.064;15.444;2022-07-29T18:09:38;26.40;99.90
22842;DHT22;11587;47.064;15.444;2022-07-29T18:12:04;26.20;99.90
22842;DHT22;11587;47.064;15.444;2022-07-29T18:14:30;26.30;99.90
22842;DHT22;11587;47.064;15.444;2022-07-29T18:16:56;26.30;99.90
22842;DHT22;11587;47.064;15.444;2022-07-29T18:19:22;26.20;99.90
22842;DHT22;11587;47.064;15.444;2022-07-29T18:21:48;26.10;99.90
22842;DHT22;11587;47.064;15.444;2022-07-29T18:24:14;26.10;99.90
22842;DHT22;11587;47.064;15.444;2022-07-29T18:26:40;26.10;99.90
22842;DHT22;11587;47.064;15.444;2022-07-29T18:29:06;26.10;99.90
22842;DHT22;11587;47.064;15.444;2022-07-29T18:31:32;26.20;99.90
22842;DHT22;11587;47.064;15.444;2022-07-29T18:33:57;26.20;99.90
22842;DHT22;11587;47.064;15.444;2022-07-29T18:41:14;26.00;99.90
22842;DHT22;11587;47.064;15.444;2022-07-29T18:43:40;26.00;99.90
22842;DHT22;11587;47.064;15.444;2022-07-29T18:46:06;26.00;99.90
22842;DHT22;11587;47.064;15.444;2022-07-29T18:48:32;25.90;99.90
22842;DHT22;11587;47.064;15.444;2022-07-29T18:53:24;25.60;99.90
22842;DHT22;11587;47.064;15.444;2022-07-29T18:55:50;25.60;99.90
22842;DHT22;11587;47.064;15.444;2022-07-29T18:58:16;25.60;99.90
22842;DHT22;11587;47.064;15.444;2022-07-29T19:00:42;25.60;99.90
22842;DHT22;11587;47.064;15.444;2022-07-29T19:03:08;25.50;99.90
22842;DHT22;11587;47.064;15.444;2022-07-29T19:07:59;25.40;99.90
22842;DHT22;11587;47.064;15.444;2022-07-29T19:10:25;25.40;99.90
22842;DHT22;11587;47.064;15.444;2022-07-29T19:12:51;25.30;99.90
22842;DHT22;11587;47.064;15.444;2022-07-29T19:15:17;25.20;99.90
22842;DHT22;11587;47.064;15.444;2022-07-29T19:17:43;25.20;99.90
22842;DHT22;11587;47.064;15.444;2022-07-29T19:20:11;25.10;99.90
22842;DHT22;11587;47.064;15.444;2022-07-29T19:22:36;25.10;99.90
22842;DHT22;11587;47.064;15.444;2022-07-29T19:25:03;25.10;99.90
22842;DHT22;11587;47.064;15.444;2022-07-29T19:27:29;25.10;99.90
22842;DHT22;11587;47.064;15.444;2022-07-29T19:34:45;25.00;99.90
22842;DHT22;11587;47.064;15.444;2022-07-29T19:37:31;25.00;99.90
22842;DHT22;11587;47.064;15.444;2022-07-29T19:39:57;25.00;99.90